EGTK/OXF METAR and TAF weather

Enter ICAO airport designator
Station Type Date Time Source
EGTK METAR 2018/01/19 17:20 UTC NOAA

EGTK 191720Z 23006KT 9999 FEW040 02/M01 Q1008


Station Type Date Time Source
EGTK Decoded METAR 2018/01/19 17:20 UTC NOAA

Station name not available
Jan 19, 2018 - 12:20 PM EST / 2018.01.19 1720 UTC
Wind: from the SW (230 degrees) at 7 MPH (6 KT):0
Visibility: greater than 7 mile(s):0
Sky conditions: mostly clear
Temperature: 35 F (2 C)
Windchill: 28 F (-2 C):1
Dew Point: 30 F (-1 C)
Relative Humidity: 80%
Pressure (altimeter): 29.77 in. Hg (1008 hPa)
ob: EGTK 191720Z 23006KT 9999 FEW040 02/M01 Q1008
cycle: 17

Station Type Date Time Source
EGTK TAF UTC NOAA

Error!


Example: see airport list